sensor_id;sensor_type;location;lat;lon;timestamp;P1;durP1;ratioP1;P2;durP2;ratioP2
15748;SDS011;7976;52.526;13.326;2022-09-29T00:00:28;12.25;;;4.90;;
15748;SDS011;7976;52.526;13.326;2022-09-29T00:02:55;10.73;;;4.30;;
15748;SDS011;7976;52.526;13.326;2022-09-29T00:05:22;10.30;;;4.47;;
15748;SDS011;7976;52.526;13.326;2022-09-29T00:07:51;11.82;;;4.00;;
15748;SDS011;7976;52.526;13.326;2022-09-29T00:10:18;10.27;;;4.35;;
15748;SDS011;7976;52.526;13.326;2022-09-29T00:12:45;11.38;;;4.45;;
15748;SDS011;7976;52.526;13.326;2022-09-29T00:15:12;11.13;;;4.65;;
15748;SDS011;7976;52.526;13.326;2022-09-29T00:17:39;10.02;;;4.60;;
15748;SDS011;7976;52.526;13.326;2022-09-29T00:20:06;11.82;;;4.50;;
15748;SDS011;7976;52.526;13.326;2022-09-29T00:22:34;12.10;;;4.90;;
15748;SDS011;7976;52.526;13.326;2022-09-29T00:25:08;14.15;;;5.63;;
15748;SDS011;7976;52.526;13.326;2022-09-29T00:27:57;12.35;;;5.13;;
15748;SDS011;7976;52.526;13.326;2022-09-29T00:30:24;11.80;;;4.95;;
15748;SDS011;7976;52.526;13.326;2022-09-29T00:32:59;11.73;;;4.80;;
15748;SDS011;7976;52.526;13.326;2022-09-29T00:35:26;10.90;;;4.72;;
15748;SDS011;7976;52.526;13.326;2022-09-29T00:37:55;12.27;;;5.20;;
15748;SDS011;7976;52.526;13.326;2022-09-29T00:40:23;11.38;;;4.90;;
15748;SDS011;7976;52.526;13.326;2022-09-29T00:42:50;11.50;;;4.85;;
15748;SDS011;7976;52.526;13.326;2022-09-29T00:45:28;14.77;;;6.15;;
15748;SDS011;7976;52.526;13.326;2022-09-29T00:48:13;12.32;;;5.15;;
15748;SDS011;7976;52.526;13.326;2022-09-29T00:50:48;11.25;;;4.65;;
15748;SDS011;7976;52.526;13.326;2022-09-29T00:53:47;12.65;;;4.97;;
15748;SDS011;7976;52.526;13.326;2022-09-29T00:56:16;12.05;;;5.15;;
15748;SDS011;7976;52.526;13.326;2022-09-29T00:58:47;11.70;;;5.38;;
15748;SDS011;7976;52.526;13.326;2022-09-29T01:01:19;11.57;;;5.10;;
15748;SDS011;7976;52.526;13.326;2022-09-29T01:03:54;12.13;;;5.03;;
15748;SDS011;7976;52.526;13.326;2022-09-29T01:06:35;12.85;;;5.72;;
15748;SDS011;7976;52.526;13.326;2022-09-29T01:09:07;13.90;;;6.30;;
15748;SDS011;7976;52.526;13.326;2022-09-29T01:11:38;12.27;;;5.20;;
15748;SDS011;7976;52.526;13.326;2022-09-29T01:14:07;12.50;;;4.75;;
15748;SDS011;7976;52.526;13.326;2022-09-29T01:16:35;11.82;;;5.03;;
15748;SDS011;7976;52.526;13.326;2022-09-29T01:19:06;11.48;;;5.35;;
15748;SDS011;7976;52.526;13.326;2022-09-29T01:21:44;12.25;;;5.43;;
15748;SDS011;7976;52.526;13.326;2022-09-29T01:27:34;11.40;;;4.97;;
15748;SDS011;7976;52.526;13.326;2022-09-29T01:30:51;11.77;;;5.13;;
15748;SDS011;7976;52.526;13.326;2022-09-29T01:33:33;11.05;;;4.10;;
15748;SDS011;7976;52.526;13.326;2022-09-29T01:36:08;14.23;;;5.60;;
15748;SDS011;7976;52.526;13.326;2022-09-29T01:41:52;13.02;;;5.53;;
15748;SDS011;7976;52.526;13.326;2022-09-29T01:44:25;13.27;;;5.20;;
15748;SDS011;7976;52.526;13.326;2022-09-29T01:46:58;11.63;;;4.65;;
15748;SDS011;7976;52.526;13.326;2022-09-29T01:49:34;13.25;;;5.78;;
15748;SDS011;7976;52.526;13.326;2022-09-29T01:52:06;10.82;;;4.72;;
15748;SDS011;7976;52.526;13.326;2022-09-29T01:54:41;12.63;;;5.88;;
15748;SDS011;7976;52.526;13.326;2022-09-29T01:57:16;12.55;;;5.35;;
15748;SDS011;7976;52.526;13.326;2022-09-29T01:59:54;12.55;;;5.20;;
15748;SDS011;7976;52.526;13.326;2022-09-29T02:02:40;11.38;;;5.05;;
15748;SDS011;7976;52.526;13.326;2022-09-29T02:05:15;13.13;;;5.63;;
15748;SDS011;7976;52.526;13.326;2022-09-29T02:07:48;11.23;;;5.03;;
15748;SDS011;7976;52.526;13.326;2022-09-29T02:10:17;13.75;;;5.40;;
15748;SDS011;7976;52.526;13.326;2022-09-29T02:12:50;12.85;;;5.78;;
15748;SDS011;7976;52.526;13.326;2022-09-29T02:15:21;11.63;;;5.30;;
15748;SDS011;7976;52.526;13.326;2022-09-29T02:17:56;13.30;;;5.57;;
15748;SDS011;7976;52.526;13.326;2022-09-29T02:20:28;12.75;;;5.22;;
15748;SDS011;7976;52.526;13.326;2022-09-29T02:22:55;12.13;;;5.15;;
15748;SDS011;7976;52.526;13.326;2022-09-29T02:25:22;13.13;;;5.47;;
15748;SDS011;7976;52.526;13.326;2022-09-29T02:27:49;12.18;;;5.13;;
15748;SDS011;7976;52.526;13.326;2022-09-29T02:30:17;13.40;;;5.65;;
15748;SDS011;7976;52.526;13.326;2022-09-29T02:32:45;12.00;;;5.35;;
15748;SDS011;7976;52.526;13.326;2022-09-29T02:35:13;12.95;;;5.85;;
15748;SDS011;7976;52.526;13.326;2022-09-29T02:37:51;13.20;;;6.03;;
15748;SDS011;7976;52.526;13.326;2022-09-29T02:40:32;12.48;;;5.25;;
15748;SDS011;7976;52.526;13.326;2022-09-29T02:43:16;11.63;;;5.00;;
15748;SDS011;7976;52.526;13.326;2022-09-29T02:46:06;11.57;;;5.47;;
15748;SDS011;7976;52.526;13.326;2022-09-29T02:49:01;12.32;;;5.30;;
15748;SDS011;7976;52.526;13.326;2022-09-29T02:51:47;13.77;;;5.82;;
15748;SDS011;7976;52.526;13.326;2022-09-29T02:54:32;12.60;;;5.13;;
15748;SDS011;7976;52.526;13.326;2022-09-29T02:57:15;12.40;;;5.90;;
15748;SDS011;7976;52.526;13.326;2022-09-29T02:59:51;12.77;;;5.10;;
15748;SDS011;7976;52.526;13.326;2022-09-29T03:02:32;13.07;;;5.82;;
15748;SDS011;7976;52.526;13.326;2022-09-29T03:04:59;12.32;;;5.57;;
15748;SDS011;7976;52.526;13.326;2022-09-29T03:07:28;13.48;;;5.55;;
15748;SDS011;7976;52.526;13.326;2022-09-29T03:09:55;12.45;;;5.60;;
15748;SDS011;7976;52.526;13.326;2022-09-29T03:12:22;12.88;;;5.60;;
15748;SDS011;7976;52.526;13.326;2022-09-29T03:14:49;13.20;;;5.72;;
15748;SDS011;7976;52.526;13.326;2022-09-29T03:17:16;13.82;;;6.07;;
15748;SDS011;7976;52.526;13.326;2022-09-29T03:19:43;14.77;;;6.22;;
15748;SDS011;7976;52.526;13.326;2022-09-29T03:22:10;13.55;;;6.38;;
15748;SDS011;7976;52.526;13.326;2022-09-29T03:24:38;13.20;;;6.47;;
15748;SDS011;7976;52.526;13.326;2022-09-29T03:27:06;13.23;;;6.13;;
15748;SDS011;7976;52.526;13.326;2022-09-29T03:29:34;12.77;;;6.45;;
15748;SDS011;7976;52.526;13.326;2022-09-29T03:32:02;12.48;;;6.25;;
15748;SDS011;7976;52.526;13.326;2022-09-29T03:34:30;14.18;;;7.18;;
15748;SDS011;7976;52.526;13.326;2022-09-29T03:36:58;12.85;;;6.55;;
15748;SDS011;7976;52.526;13.326;2022-09-29T03:39:25;14.10;;;6.32;;
15748;SDS011;7976;52.526;13.326;2022-09-29T03:41:53;13.25;;;6.38;;
15748;SDS011;7976;52.526;13.326;2022-09-29T03:44:21;16.52;;;6.68;;
15748;SDS011;7976;52.526;13.326;2022-09-29T03:46:47;15.38;;;6.57;;
15748;SDS011;7976;52.526;13.326;2022-09-29T03:49:15;14.50;;;6.65;;
15748;SDS011;7976;52.526;13.326;2022-09-29T03:51:42;15.32;;;7.43;;
15748;SDS011;7976;52.526;13.326;2022-09-29T03:54:09;13.82;;;6.47;;
15748;SDS011;7976;52.526;13.326;2022-09-29T03:56:37;14.73;;;6.80;;
15748;SDS011;7976;52.526;13.326;2022-09-29T03:59:06;14.13;;;6.45;;
15748;SDS011;7976;52.526;13.326;2022-09-29T04:01:36;14.13;;;6.30;;
15748;SDS011;7976;52.526;13.326;2022-09-29T04:04:03;12.82;;;6.20;;
15748;SDS011;7976;52.526;13.326;2022-09-29T04:06:31;13.98;;;7.22;;
15748;SDS011;7976;52.526;13.326;2022-09-29T04:08:57;14.15;;;7.00;;
15748;SDS011;7976;52.526;13.326;2022-09-29T04:11:24;13.82;;;6.57;;
15748;SDS011;7976;52.526;13.326;2022-09-29T04:13:51;12.82;;;6.15;;
15748;SDS011;7976;52.526;13.326;2022-09-29T04:16:20;14.52;;;6.97;;
15748;SDS011;7976;52.526;13.326;2022-09-29T04:18:47;16.65;;;7.97;;
15748;SDS011;7976;52.526;13.326;2022-09-29T04:21:13;14.77;;;6.20;;
15748;SDS011;7976;52.526;13.326;2022-09-29T04:23:40;16.20;;;7.03;;
15748;SDS011;7976;52.526;13.326;2022-09-29T04:26:08;12.68;;;6.30;;
15748;SDS011;7976;52.526;13.326;2022-09-29T04:28:35;15.77;;;7.13;;
15748;SDS011;7976;52.526;13.326;2022-09-29T04:31:03;14.13;;;6.80;;
15748;SDS011;7976;52.526;13.326;2022-09-29T04:33:32;14.00;;;6.60;;
15748;SDS011;7976;52.526;13.326;2022-09-29T04:35:59;15.55;;;7.07;;
15748;SDS011;7976;52.526;13.326;2022-09-29T04:38:27;15.75;;;7.93;;
15748;SDS011;7976;52.526;13.326;2022-09-29T04:40:54;14.82;;;7.18;;
15748;SDS011;7976;52.526;13.326;2022-09-29T04:43:20;16.83;;;7.45;;
15748;SDS011;7976;52.526;13.326;2022-09-29T04:45:48;17.92;;;6.72;;
15748;SDS011;7976;52.526;13.326;2022-09-29T04:48:14;16.83;;;7.38;;
15748;SDS011;7976;52.526;13.326;2022-09-29T04:50:43;15.00;;;6.88;;
15748;SDS011;7976;52.526;13.326;2022-09-29T04:53:10;16.13;;;7.82;;
15748;SDS011;7976;52.526;13.326;2022-09-29T04:55:37;16.20;;;7.78;;
15748;SDS011;7976;52.526;13.326;2022-09-29T04:58:04;16.55;;;7.72;;
15748;SDS011;7976;52.526;13.326;2022-09-29T05:00:31;17.73;;;7.72;;
15748;SDS011;7976;52.526;13.326;2022-09-29T05:02:59;15.93;;;7.07;;
15748;SDS011;7976;52.526;13.326;2022-09-29T05:05:26;15.35;;;7.10;;
15748;SDS011;7976;52.526;13.326;2022-09-29T05:07:54;15.30;;;7.57;;
15748;SDS011;7976;52.526;13.326;2022-09-29T05:10:23;16.27;;;7.85;;
15748;SDS011;7976;52.526;13.326;2022-09-29T05:12:50;15.70;;;6.80;;
15748;SDS011;7976;52.526;13.326;2022-09-29T05:15:18;16.23;;;7.80;;
15748;SDS011;7976;52.526;13.326;2022-09-29T05:17:45;16.58;;;7.75;;
15748;SDS011;7976;52.526;13.326;2022-09-29T05:20:13;14.82;;;7.22;;
15748;SDS011;7976;52.526;13.326;2022-09-29T05:22:40;15.85;;;7.60;;
15748;SDS011;7976;52.526;13.326;2022-09-29T05:25:10;15.50;;;7.68;;
15748;SDS011;7976;52.526;13.326;2022-09-29T05:27:38;17.23;;;8.05;;
15748;SDS011;7976;52.526;13.326;2022-09-29T05:30:11;16.20;;;8.23;;
15748;SDS011;7976;52.526;13.326;2022-09-29T05:32:43;17.13;;;7.97;;
15748;SDS011;7976;52.526;13.326;2022-09-29T05:35:12;17.33;;;7.88;;
15748;SDS011;7976;52.526;13.326;2022-09-29T05:37:39;17.60;;;7.75;;
15748;SDS011;7976;52.526;13.326;2022-09-29T05:40:07;18.45;;;8.05;;
15748;SDS011;7976;52.526;13.326;2022-09-29T05:42:36;19.50;;;8.55;;
15748;SDS011;7976;52.526;13.326;2022-09-29T05:45:06;17.45;;;8.20;;
15748;SDS011;7976;52.526;13.326;2022-09-29T05:47:35;16.70;;;7.72;;
15748;SDS011;7976;52.526;13.326;2022-09-29T05:50:02;17.15;;;8.13;;
15748;SDS011;7976;52.526;13.326;2022-09-29T05:52:30;17.60;;;8.30;;
15748;SDS011;7976;52.526;13.326;2022-09-29T05:55:04;17.13;;;7.97;;
15748;SDS011;7976;52.526;13.326;2022-09-29T05:57:37;18.60;;;8.77;;
15748;SDS011;7976;52.526;13.326;2022-09-29T06:00:08;19.73;;;9.25;;
15748;SDS011;7976;52.526;13.326;2022-09-29T06:02:39;18.08;;;8.55;;
15748;SDS011;7976;52.526;13.326;2022-09-29T06:05:07;17.02;;;8.45;;
15748;SDS011;7976;52.526;13.326;2022-09-29T06:07:46;18.38;;;7.28;;
15748;SDS011;7976;52.526;13.326;2022-09-29T06:10:22;17.52;;;7.93;;
15748;SDS011;7976;52.526;13.326;2022-09-29T06:12:57;18.20;;;8.50;;
15748;SDS011;7976;52.526;13.326;2022-09-29T06:15:29;18.27;;;8.23;;
15748;SDS011;7976;52.526;13.326;2022-09-29T06:17:57;17.65;;;8.55;;
15748;SDS011;7976;52.526;13.326;2022-09-29T06:20:25;19.65;;;8.23;;
15748;SDS011;7976;52.526;13.326;2022-09-29T06:22:57;21.65;;;8.68;;
15748;SDS011;7976;52.526;13.326;2022-09-29T06:25:24;18.33;;;8.88;;
15748;SDS011;7976;52.526;13.326;2022-09-29T06:27:56;18.10;;;8.30;;
15748;SDS011;7976;52.526;13.326;2022-09-29T06:30:24;16.40;;;7.70;;
15748;SDS011;7976;52.526;13.326;2022-09-29T06:32:53;18.77;;;9.00;;
15748;SDS011;7976;52.526;13.326;2022-09-29T06:35:21;17.52;;;8.02;;
15748;SDS011;7976;52.526;13.326;2022-09-29T06:38:06;19.98;;;8.93;;
15748;SDS011;7976;52.526;13.326;2022-09-29T06:40:34;18.15;;;8.20;;
15748;SDS011;7976;52.526;13.326;2022-09-29T06:43:02;18.00;;;8.52;;
15748;SDS011;7976;52.526;13.326;2022-09-29T06:45:30;21.35;;;8.30;;
15748;SDS011;7976;52.526;13.326;2022-09-29T06:47:57;17.58;;;8.75;;
15748;SDS011;7976;52.526;13.326;2022-09-29T06:50:27;16.98;;;8.18;;
15748;SDS011;7976;52.526;13.326;2022-09-29T06:52:55;18.58;;;7.90;;
15748;SDS011;7976;52.526;13.326;2022-09-29T06:55:25;16.35;;;7.72;;
15748;SDS011;7976;52.526;13.326;2022-09-29T06:57:58;18.85;;;9.23;;
15748;SDS011;7976;52.526;13.326;2022-09-29T07:00:27;19.35;;;8.82;;
15748;SDS011;7976;52.526;13.326;2022-09-29T07:02:54;16.95;;;8.25;;
15748;SDS011;7976;52.526;13.326;2022-09-29T07:05:21;19.67;;;8.70;;
15748;SDS011;7976;52.526;13.326;2022-09-29T07:07:54;18.85;;;8.45;;
15748;SDS011;7976;52.526;13.326;2022-09-29T07:10:21;17.83;;;7.95;;
15748;SDS011;7976;52.526;13.326;2022-09-29T07:12:49;18.40;;;9.02;;
15748;SDS011;7976;52.526;13.326;2022-09-29T07:15:17;21.77;;;8.85;;
15748;SDS011;7976;52.526;13.326;2022-09-29T07:17:45;17.48;;;8.18;;
15748;SDS011;7976;52.526;13.326;2022-09-29T07:20:16;18.65;;;7.72;;
15748;SDS011;7976;52.526;13.326;2022-09-29T07:22:45;20.20;;;8.55;;
15748;SDS011;7976;52.526;13.326;2022-09-29T07:25:12;17.67;;;7.72;;
15748;SDS011;7976;52.526;13.326;2022-09-29T07:27:39;19.48;;;9.15;;
15748;SDS011;7976;52.526;13.326;2022-09-29T07:30:07;18.25;;;8.05;;
15748;SDS011;7976;52.526;13.326;2022-09-29T07:32:35;16.77;;;7.78;;
15748;SDS011;7976;52.526;13.326;2022-09-29T07:35:04;18.48;;;8.43;;
15748;SDS011;7976;52.526;13.326;2022-09-29T07:37:32;18.33;;;8.98;;
15748;SDS011;7976;52.526;13.326;2022-09-29T07:39:59;20.67;;;8.77;;
15748;SDS011;7976;52.526;13.326;2022-09-29T07:42:27;18.77;;;8.35;;
15748;SDS011;7976;52.526;13.326;2022-09-29T07:44:54;19.00;;;9.00;;
15748;SDS011;7976;52.526;13.326;2022-09-29T07:47:24;19.73;;;9.20;;
15748;SDS011;7976;52.526;13.326;2022-09-29T07:49:54;19.00;;;8.63;;
15748;SDS011;7976;52.526;13.326;2022-09-29T07:52:28;17.95;;;9.23;;
15748;SDS011;7976;52.526;13.326;2022-09-29T07:54:58;20.52;;;9.65;;
15748;SDS011;7976;52.526;13.326;2022-09-29T07:57:29;18.85;;;9.25;;
15748;SDS011;7976;52.526;13.326;2022-09-29T07:59:56;19.20;;;8.98;;
15748;SDS011;7976;52.526;13.326;2022-09-29T08:02:24;19.77;;;9.43;;
15748;SDS011;7976;52.526;13.326;2022-09-29T08:04:52;20.05;;;10.18;;
15748;SDS011;7976;52.526;13.326;2022-09-29T08:07:18;21.88;;;9.63;;
15748;SDS011;7976;52.526;13.326;2022-09-29T08:09:48;19.02;;;9.68;;
15748;SDS011;7976;52.526;13.326;2022-09-29T08:12:15;21.25;;;9.80;;
15748;SDS011;7976;52.526;13.326;2022-09-29T08:14:43;24.95;;;11.20;;
15748;SDS011;7976;52.526;13.326;2022-09-29T08:17:10;21.30;;;10.68;;
15748;SDS011;7976;52.526;13.326;2022-09-29T08:19:38;23.30;;;10.45;;
15748;SDS011;7976;52.526;13.326;2022-09-29T08:22:06;24.38;;;10.95;;
15748;SDS011;7976;52.526;13.326;2022-09-29T08:24:38;22.02;;;11.48;;
15748;SDS011;7976;52.526;13.326;2022-09-29T08:27:12;21.83;;;10.13;;
15748;SDS011;7976;52.526;13.326;2022-09-29T08:29:40;23.17;;;9.88;;
15748;SDS011;7976;52.526;13.326;2022-09-29T08:32:07;22.50;;;10.25;;
15748;SDS011;7976;52.526;13.326;2022-09-29T08:34:35;21.00;;;10.45;;
15748;SDS011;7976;52.526;13.326;2022-09-29T08:37:02;22.88;;;10.65;;
15748;SDS011;7976;52.526;13.326;2022-09-29T08:39:32;21.60;;;10.15;;
15748;SDS011;7976;52.526;13.326;2022-09-29T08:42:04;23.40;;;10.18;;
15748;SDS011;7976;52.526;13.326;2022-09-29T08:45:06;19.63;;;9.43;;
15748;SDS011;7976;52.526;13.326;2022-09-29T08:47:42;21.85;;;9.82;;
15748;SDS011;7976;52.526;13.326;2022-09-29T08:50:13;22.35;;;10.43;;
15748;SDS011;7976;52.526;13.326;2022-09-29T08:52:53;21.38;;;9.80;;
15748;SDS011;7976;52.526;13.326;2022-09-29T08:55:28;19.33;;;9.60;;
15748;SDS011;7976;52.526;13.326;2022-09-29T08:58:09;18.45;;;9.02;;
15748;SDS011;7976;52.526;13.326;2022-09-29T09:00:41;18.70;;;8.90;;
15748;SDS011;7976;52.526;13.326;2022-09-29T09:03:21;25.17;;;10.73;;
15748;SDS011;7976;52.526;13.326;2022-09-29T09:06:30;19.23;;;9.70;;
15748;SDS011;7976;52.526;13.326;2022-09-29T09:09:21;18.38;;;8.77;;
15748;SDS011;7976;52.526;13.326;2022-09-29T09:15:26;19.17;;;9.30;;
15748;SDS011;7976;52.526;13.326;2022-09-29T09:18:09;20.95;;;10.00;;
15748;SDS011;7976;52.526;13.326;2022-09-29T09:20:58;17.65;;;8.77;;
15748;SDS011;7976;52.526;13.326;2022-09-29T09:23:35;22.05;;;10.10;;
15748;SDS011;7976;52.526;13.326;2022-09-29T09:26:18;19.08;;;9.30;;
15748;SDS011;7976;52.526;13.326;2022-09-29T09:28:52;19.63;;;9.55;;
15748;SDS011;7976;52.526;13.326;2022-09-29T09:31:30;20.50;;;9.82;;
15748;SDS011;7976;52.526;13.326;2022-09-29T09:34:05;17.45;;;9.13;;
15748;SDS011;7976;52.526;13.326;2022-09-29T09:36:42;18.60;;;9.77;;
15748;SDS011;7976;52.526;13.326;2022-09-29T09:39:18;18.88;;;8.73;;
15748;SDS011;7976;52.526;13.326;2022-09-29T09:41:55;16.85;;;9.10;;
15748;SDS011;7976;52.526;13.326;2022-09-29T09:44:25;15.90;;;8.18;;
15748;SDS011;7976;52.526;13.326;2022-09-29T09:47:03;15.60;;;8.18;;
15748;SDS011;7976;52.526;13.326;2022-09-29T09:49:48;19.80;;;8.45;;
15748;SDS011;7976;52.526;13.326;2022-09-29T09:52:21;17.50;;;8.38;;
15748;SDS011;7976;52.526;13.326;2022-09-29T09:54:55;15.70;;;7.75;;
15748;SDS011;7976;52.526;13.326;2022-09-29T09:57:38;14.57;;;7.25;;
15748;SDS011;7976;52.526;13.326;2022-09-29T10:00:24;15.27;;;7.18;;
15748;SDS011;7976;52.526;13.326;2022-09-29T10:03:12;17.05;;;7.75;;
15748;SDS011;7976;52.526;13.326;2022-09-29T10:05:46;15.82;;;7.32;;
15748;SDS011;7976;52.526;13.326;2022-09-29T10:08:15;17.23;;;7.63;;
15748;SDS011;7976;52.526;13.326;2022-09-29T10:10:50;12.02;;;5.90;;
15748;SDS011;7976;52.526;13.326;2022-09-29T10:13:20;16.20;;;7.18;;
15748;SDS011;7976;52.526;13.326;2022-09-29T10:15:59;12.82;;;6.53;;
15748;SDS011;7976;52.526;13.326;2022-09-29T10:18:42;16.83;;;6.28;;
15748;SDS011;7976;52.526;13.326;2022-09-29T10:21:19;16.48;;;6.22;;
15748;SDS011;7976;52.526;13.326;2022-09-29T10:23:49;12.13;;;5.47;;
15748;SDS011;7976;52.526;13.326;2022-09-29T10:26:18;10.10;;;5.05;;
15748;SDS011;7976;52.526;13.326;2022-09-29T10:28:51;11.82;;;4.95;;
15748;SDS011;7976;52.526;13.326;2022-09-29T10:31:24;13.35;;;5.78;;
15748;SDS011;7976;52.526;13.326;2022-09-29T10:33:56;11.32;;;5.15;;
15748;SDS011;7976;52.526;13.326;2022-09-29T10:36:28;11.07;;;5.10;;
15748;SDS011;7976;52.526;13.326;2022-09-29T10:39:28;11.40;;;4.70;;
15748;SDS011;7976;52.526;13.326;2022-09-29T10:41:58;8.77;;;3.63;;
15748;SDS011;7976;52.526;13.326;2022-09-29T10:44:32;9.77;;;3.63;;
15748;SDS011;7976;52.526;13.326;2022-09-29T10:46:59;9.82;;;3.58;;
15748;SDS011;7976;52.526;13.326;2022-09-29T10:49:33;8.40;;;3.30;;
15748;SDS011;7976;52.526;13.326;2022-09-29T10:52:01;7.47;;;3.20;;
15748;SDS011;7976;52.526;13.326;2022-09-29T10:54:32;8.60;;;3.65;;
15748;SDS011;7976;52.526;13.326;2022-09-29T10:57:19;8.05;;;3.25;;
15748;SDS011;7976;52.526;13.326;2022-09-29T10:59:57;8.10;;;3.10;;
15748;SDS011;7976;52.526;13.326;2022-09-29T11:02:30;10.95;;;3.85;;
15748;SDS011;7976;52.526;13.326;2022-09-29T11:05:20;11.00;;;4.25;;
15748;SDS011;7976;52.526;13.326;2022-09-29T11:07:51;8.95;;;3.63;;
15748;SDS011;7976;52.526;13.326;2022-09-29T11:10:28;9.40;;;3.42;;
15748;SDS011;7976;52.526;13.326;2022-09-29T11:12:57;9.23;;;3.63;;
15748;SDS011;7976;52.526;13.326;2022-09-29T11:15:48;8.25;;;3.42;;
15748;SDS011;7976;52.526;13.326;2022-09-29T11:18:16;8.98;;;3.75;;
15748;SDS011;7976;52.526;13.326;2022-09-29T11:20:55;11.85;;;3.75;;
15748;SDS011;7976;52.526;13.326;2022-09-29T11:23:49;8.95;;;3.63;;
15748;SDS011;7976;52.526;13.326;2022-09-29T11:26:30;8.43;;;3.53;;
15748;SDS011;7976;52.526;13.326;2022-09-29T11:29:09;10.25;;;3.70;;
15748;SDS011;7976;52.526;13.326;2022-09-29T11:31:57;11.63;;;4.50;;
15748;SDS011;7976;52.526;13.326;2022-09-29T11:35:03;11.80;;;4.88;;
15748;SDS011;7976;52.526;13.326;2022-09-29T11:37:59;9.32;;;3.70;;
15748;SDS011;7976;52.526;13.326;2022-09-29T11:41:09;8.27;;;3.50;;
15748;SDS011;7976;52.526;13.326;2022-09-29T11:44:14;10.13;;;4.35;;
15748;SDS011;7976;52.526;13.326;2022-09-29T11:47:04;8.68;;;3.40;;
15748;SDS011;7976;52.526;13.326;2022-09-29T11:49:53;7.80;;;3.05;;
15748;SDS011;7976;52.526;13.326;2022-09-29T11:52:48;7.03;;;2.50;;
15748;SDS011;7976;52.526;13.326;2022-09-29T11:55:43;6.53;;;2.40;;
15748;SDS011;7976;52.526;13.326;2022-09-29T11:58:31;7.82;;;2.30;;
15748;SDS011;7976;52.526;13.326;2022-09-29T12:01:29;8.60;;;3.35;;
15748;SDS011;7976;52.526;13.326;2022-09-29T12:04:22;7.35;;;2.55;;
15748;SDS011;7976;52.526;13.326;2022-09-29T12:07:15;7.68;;;2.72;;
15748;SDS011;7976;52.526;13.326;2022-09-29T12:10:03;9.77;;;3.50;;
15748;SDS011;7976;52.526;13.326;2022-09-29T12:12:53;7.35;;;2.85;;
15748;SDS011;7976;52.526;13.326;2022-09-29T12:15:33;8.00;;;2.67;;
15748;SDS011;7976;52.526;13.326;2022-09-29T12:18:13;10.70;;;4.32;;
15748;SDS011;7976;52.526;13.326;2022-09-29T12:20:47;9.02;;;2.88;;
15748;SDS011;7976;52.526;13.326;2022-09-29T12:23:19;7.93;;;2.90;;
15748;SDS011;7976;52.526;13.326;2022-09-29T12:25:54;8.13;;;2.97;;
15748;SDS011;7976;52.526;13.326;2022-09-29T12:28:31;7.18;;;2.70;;
15748;SDS011;7976;52.526;13.326;2022-09-29T12:31:08;6.15;;;2.35;;
15748;SDS011;7976;52.526;13.326;2022-09-29T12:33:43;7.90;;;2.60;;
15748;SDS011;7976;52.526;13.326;2022-09-29T12:36:18;8.65;;;2.63;;
15748;SDS011;7976;52.526;13.326;2022-09-29T12:39:35;6.38;;;2.78;;
15748;SDS011;7976;52.526;13.326;2022-09-29T12:42:21;9.23;;;3.10;;
15748;SDS011;7976;52.526;13.326;2022-09-29T12:45:07;7.43;;;2.60;;
15748;SDS011;7976;52.526;13.326;2022-09-29T12:47:50;7.40;;;2.53;;
15748;SDS011;7976;52.526;13.326;2022-09-29T12:50:27;7.15;;;2.72;;
15748;SDS011;7976;52.526;13.326;2022-09-29T12:53:02;8.73;;;2.80;;
15748;SDS011;7976;52.526;13.326;2022-09-29T12:55:44;7.28;;;2.63;;
15748;SDS011;7976;52.526;13.326;2022-09-29T12:58:21;7.65;;;3.28;;
15748;SDS011;7976;52.526;13.326;2022-09-29T13:01:02;10.02;;;4.35;;
15748;SDS011;7976;52.526;13.326;2022-09-29T13:03:53;7.50;;;3.03;;
15748;SDS011;7976;52.526;13.326;2022-09-29T13:06:53;9.45;;;3.40;;
15748;SDS011;7976;52.526;13.326;2022-09-29T13:09:56;8.13;;;2.35;;
15748;SDS011;7976;52.526;13.326;2022-09-29T13:12:54;7.43;;;2.58;;
15748;SDS011;7976;52.526;13.326;2022-09-29T13:15:48;6.88;;;2.38;;
15748;SDS011;7976;52.526;13.326;2022-09-29T13:18:31;7.63;;;2.53;;
15748;SDS011;7976;52.526;13.326;2022-09-29T13:21:19;8.27;;;2.80;;
15748;SDS011;7976;52.526;13.326;2022-09-29T13:24:06;8.32;;;2.75;;
15748;SDS011;7976;52.526;13.326;2022-09-29T13:27:08;9.68;;;3.00;;
15748;SDS011;7976;52.526;13.326;2022-09-29T13:30:11;7.63;;;2.53;;
15748;SDS011;7976;52.526;13.326;2022-09-29T13:32:43;7.60;;;2.95;;
15748;SDS011;7976;52.526;13.326;2022-09-29T13:35:21;8.88;;;3.53;;
15748;SDS011;7976;52.526;13.326;2022-09-29T13:37:52;8.55;;;2.90;;
15748;SDS011;7976;52.526;13.326;2022-09-29T13:40:23;7.20;;;2.50;;
15748;SDS011;7976;52.526;13.326;2022-09-29T13:42:53;7.35;;;2.80;;
15748;SDS011;7976;52.526;13.326;2022-09-29T13:51:20;7.53;;;2.75;;
15748;SDS011;7976;52.526;13.326;2022-09-29T13:54:20;8.95;;;2.80;;
15748;SDS011;7976;52.526;13.326;2022-09-29T14:00:10;6.75;;;2.40;;
15748;SDS011;7976;52.526;13.326;2022-09-29T14:02:45;6.75;;;2.45;;
15748;SDS011;7976;52.526;13.326;2022-09-29T14:05:36;7.53;;;2.47;;
15748;SDS011;7976;52.526;13.326;2022-09-29T14:08:14;7.40;;;2.55;;
15748;SDS011;7976;52.526;13.326;2022-09-29T14:10:50;7.65;;;2.80;;
15748;SDS011;7976;52.526;13.326;2022-09-29T14:13:28;6.20;;;2.28;;
15748;SDS011;7976;52.526;13.326;2022-09-29T14:19:02;8.13;;;2.95;;
15748;SDS011;7976;52.526;13.326;2022-09-29T14:24:43;10.57;;;4.72;;
15748;SDS011;7976;52.526;13.326;2022-09-29T14:27:20;9.80;;;4.22;;
15748;SDS011;7976;52.526;13.326;2022-09-29T14:29:56;9.07;;;2.70;;
15748;SDS011;7976;52.526;13.326;2022-09-29T14:32:37;6.28;;;1.95;;
15748;SDS011;7976;52.526;13.326;2022-09-29T14:35:14;8.90;;;2.20;;
15748;SDS011;7976;52.526;13.326;2022-09-29T14:37:51;7.00;;;2.20;;
15748;SDS011;7976;52.526;13.326;2022-09-29T14:40:37;5.75;;;2.05;;
15748;SDS011;7976;52.526;13.326;2022-09-29T14:43:10;8.38;;;3.47;;
15748;SDS011;7976;52.526;13.326;2022-09-29T14:45:52;7.05;;;2.53;;
15748;SDS011;7976;52.526;13.326;2022-09-29T14:49:18;6.88;;;2.10;;
15748;SDS011;7976;52.526;13.326;2022-09-29T14:52:38;7.30;;;2.03;;
15748;SDS011;7976;52.526;13.326;2022-09-29T14:55:24;6.05;;;2.10;;
15748;SDS011;7976;52.526;13.326;2022-09-29T14:58:06;6.38;;;2.30;;
15748;SDS011;7976;52.526;13.326;2022-09-29T15:00:56;6.53;;;2.53;;
15748;SDS011;7976;52.526;13.326;2022-09-29T15:03:36;7.13;;;2.40;;
15748;SDS011;7976;52.526;13.326;2022-09-29T15:06:13;7.15;;;2.50;;
15748;SDS011;7976;52.526;13.326;2022-09-29T15:08:51;8.38;;;3.42;;
15748;SDS011;7976;52.526;13.326;2022-09-29T15:11:23;11.05;;;5.22;;
15748;SDS011;7976;52.526;13.326;2022-09-29T15:14:15;7.35;;;2.90;;
15748;SDS011;7976;52.526;13.326;2022-09-29T15:16:50;8.35;;;3.00;;
15748;SDS011;7976;52.526;13.326;2022-09-29T15:19:34;7.00;;;2.38;;
15748;SDS011;7976;52.526;13.326;2022-09-29T15:22:27;6.80;;;2.35;;
15748;SDS011;7976;52.526;13.326;2022-09-29T15:25:30;9.27;;;2.50;;
15748;SDS011;7976;52.526;13.326;2022-09-29T15:28:02;6.60;;;2.13;;
15748;SDS011;7976;52.526;13.326;2022-09-29T15:30:37;8.55;;;3.08;;
15748;SDS011;7976;52.526;13.326;2022-09-29T15:33:16;7.03;;;2.63;;
15748;SDS011;7976;52.526;13.326;2022-09-29T15:35:48;8.23;;;2.70;;
15748;SDS011;7976;52.526;13.326;2022-09-29T15:38:31;7.55;;;2.67;;
15748;SDS011;7976;52.526;13.326;2022-09-29T15:41:12;8.18;;;2.72;;
15748;SDS011;7976;52.526;13.326;2022-09-29T15:43:43;9.43;;;2.85;;
15748;SDS011;7976;52.526;13.326;2022-09-29T15:46:21;7.72;;;3.30;;
15748;SDS011;7976;52.526;13.326;2022-09-29T15:49:03;7.53;;;2.90;;
15748;SDS011;7976;52.526;13.326;2022-09-29T15:51:38;8.38;;;3.20;;